createdAt,value
2022-08-16T00:01:23.808Z,24.90
2022-08-16T00:03:52.231Z,25.88
2022-08-16T00:06:18.776Z,22.95
2022-08-16T00:08:46.104Z,23.13
2022-08-16T00:11:15.838Z,22.48
2022-08-16T00:13:53.403Z,19.13
2022-08-16T00:17:01.478Z,22.60
2022-08-16T00:19:14.870Z,21.00
2022-08-16T00:21:43.442Z,21.13
2022-08-16T00:24:12.314Z,18.60
2022-08-16T00:26:45.089Z,23.52
2022-08-16T00:29:15.398Z,23.90
2022-08-16T00:31:58.793Z,21.15
2022-08-16T00:34:43.770Z,24.03
2022-08-16T00:37:17.152Z,21.52
2022-08-16T00:39:46.883Z,23.42
2022-08-16T00:42:13.957Z,22.10
2022-08-16T00:44:46.438Z,22.95
2022-08-16T00:47:16.858Z,21.77
2022-08-16T00:49:44.851Z,21.88
2022-08-16T00:52:30.298Z,22.23
2022-08-16T00:54:59.446Z,24.73
2022-08-16T00:57:27.574Z,23.52
2022-08-16T01:00:19.900Z,22.80
2022-08-16T01:02:48.859Z,28.70
2022-08-16T01:05:16.201Z,23.85
2022-08-16T01:07:51.930Z,25.17
2022-08-16T01:10:31.912Z,21.92
2022-08-16T01:13:15.159Z,25.70
2022-08-16T01:15:47.900Z,26.08
2022-08-16T01:18:40.332Z,24.65
2022-08-16T01:21:40.003Z,26.42
2022-08-16T01:24:51.753Z,25.67
2022-08-16T01:27:21.000Z,24.47
2022-08-16T01:30:26.183Z,29.60
2022-08-16T01:33:01.734Z,29.42
2022-08-16T01:36:09.326Z,30.50
2022-08-16T01:38:48.996Z,30.00
2022-08-16T01:41:25.716Z,27.13
2022-08-16T01:43:57.066Z,29.80
2022-08-16T01:46:57.521Z,32.85
2022-08-16T01:49:42.777Z,31.67
2022-08-16T01:52:28.105Z,28.23
2022-08-16T01:54:57.638Z,26.43
2022-08-16T01:57:24.827Z,31.38
2022-08-16T01:59:54.436Z,29.83
2022-08-16T02:02:27.372Z,27.63
2022-08-16T02:04:55.070Z,29.23
2022-08-16T02:07:23.727Z,28.53
2022-08-16T02:09:57.550Z,28.98
2022-08-16T02:12:50.456Z,28.33
2022-08-16T02:15:18.376Z,28.75
2022-08-16T02:17:53.203Z,31.33
2022-08-16T02:20:20.326Z,29.63
2022-08-16T02:22:55.209Z,35.20
2022-08-16T02:25:22.788Z,30.90
2022-08-16T02:27:51.064Z,33.58
2022-08-16T02:30:36.539Z,31.85
2022-08-16T02:33:09.794Z,31.73
2022-08-16T02:35:54.200Z,31.60
2022-08-16T02:38:24.100Z,31.45
2022-08-16T02:40:51.505Z,29.38
2022-08-16T02:43:27.453Z,31.27
2022-08-16T02:45:55.275Z,31.10
2022-08-16T02:48:30.518Z,37.08
2022-08-16T02:51:10.414Z,33.63
2022-08-16T02:53:40.334Z,31.15
2022-08-16T02:56:09.723Z,33.25
2022-08-16T02:58:37.065Z,32.47
2022-08-16T03:01:03.722Z,36.00
2022-08-16T03:04:41.159Z,35.70
2022-08-16T03:06:41.443Z,39.15
2022-08-16T03:09:13.130Z,36.42
2022-08-16T03:11:40.958Z,33.60
2022-08-16T03:14:07.841Z,36.10
2022-08-16T03:16:38.789Z,34.65
2022-08-16T03:19:09.825Z,37.13
2022-08-16T03:21:38.213Z,40.55
2022-08-16T03:24:28.921Z,42.30
2022-08-16T03:26:58.796Z,41.25
2022-08-16T03:29:33.400Z,37.80
2022-08-16T03:32:02.134Z,39.28
2022-08-16T03:34:30.176Z,36.92
2022-08-16T03:36:57.125Z,42.80
2022-08-16T03:39:24.636Z,38.33
2022-08-16T03:41:59.705Z,44.42
2022-08-16T03:44:43.229Z,37.83
2022-08-16T03:47:18.916Z,40.97
2022-08-16T03:49:51.341Z,40.67
2022-08-16T03:52:23.617Z,42.40
2022-08-16T03:54:57.461Z,46.67
2022-08-16T03:57:32.021Z,43.80
2022-08-16T04:00:35.331Z,40.80
2022-08-16T04:03:07.690Z,42.53
2022-08-16T04:05:44.268Z,42.10
2022-08-16T04:08:22.852Z,43.90
2022-08-16T04:10:52.208Z,46.90
2022-08-16T04:13:19.008Z,44.67
2022-08-16T04:15:48.028Z,40.10
2022-08-16T04:18:19.876Z,47.17
2022-08-16T04:20:48.869Z,49.63
2022-08-16T04:23:16.087Z,47.15
2022-08-16T04:25:43.500Z,47.30
2022-08-16T04:28:29.336Z,50.87
2022-08-16T04:31:00.410Z,46.75
2022-08-16T04:33:27.686Z,43.33
2022-08-16T04:35:57.733Z,44.38
2022-08-16T04:38:25.620Z,46.90
2022-08-16T04:40:52.414Z,43.83
2022-08-16T04:43:20.992Z,43.63
2022-08-16T04:46:00.011Z,49.20
2022-08-16T04:48:32.565Z,44.78
2022-08-16T04:51:00.725Z,42.55
2022-08-16T04:53:28.726Z,45.80
2022-08-16T04:55:55.574Z,45.88
2022-08-16T04:58:41.345Z,46.65
2022-08-16T05:01:09.163Z,46.55
2022-08-16T05:03:35.798Z,38.45
2022-08-16T05:06:09.295Z,43.93
2022-08-16T05:08:36.122Z,41.15
2022-08-16T05:11:08.193Z,39.50
2022-08-16T05:13:41.003Z,41.58
2022-08-16T05:16:19.836Z,36.22
2022-08-16T05:18:47.942Z,35.03
2022-08-16T05:21:14.452Z,36.28
2022-08-16T05:23:40.998Z,34.67
2022-08-16T05:26:09.169Z,36.92
2022-08-16T05:28:47.692Z,32.75
2022-08-16T05:31:22.884Z,37.03
2022-08-16T05:33:53.654Z,34.67
2022-08-16T05:36:21.770Z,29.67
2022-08-16T05:38:48.879Z,30.40
2022-08-16T05:41:15.533Z,32.05
2022-08-16T05:43:46.950Z,29.60
2022-08-16T05:46:29.760Z,29.27
2022-08-16T05:49:08.827Z,26.88
2022-08-16T05:51:40.051Z,31.27
2022-08-16T05:54:11.652Z,34.28
2022-08-16T05:56:42.954Z,29.37
2022-08-16T05:59:10.818Z,29.38
2022-08-16T06:01:39.048Z,31.77
2022-08-16T06:04:13.702Z,29.50
2022-08-16T06:06:56.682Z,28.80
2022-08-16T06:09:25.932Z,29.30
2022-08-16T06:12:10.601Z,30.83
2022-08-16T06:14:37.821Z,30.33
2022-08-16T06:17:07.350Z,33.40
2022-08-16T06:19:35.796Z,30.67
2022-08-16T06:22:02.807Z,29.23
2022-08-16T06:24:55.195Z,32.13
2022-08-16T06:27:16.059Z,32.22
2022-08-16T06:29:49.880Z,32.97
2022-08-16T06:32:28.078Z,30.25
2022-08-16T06:35:02.292Z,27.93
2022-08-16T06:37:37.021Z,28.88
2022-08-16T06:40:04.990Z,29.08
2022-08-16T06:42:47.493Z,29.05
2022-08-16T06:45:15.736Z,25.95
2022-08-16T06:47:52.851Z,31.90
2022-08-16T06:50:28.350Z,26.65
2022-08-16T06:53:19.605Z,27.50
2022-08-16T06:55:43.363Z,28.48
2022-08-16T06:58:22.401Z,24.27
2022-08-16T07:00:50.085Z,23.73
2022-08-16T07:03:27.823Z,28.58
2022-08-16T07:05:58.940Z,26.10
2022-08-16T07:08:27.487Z,21.73
2022-08-16T07:10:54.726Z,23.08
2022-08-16T07:13:58.452Z,22.60
2022-08-16T07:16:15.366Z,26.85
2022-08-16T07:18:58.871Z,27.48
2022-08-16T07:21:28.227Z,22.15
2022-08-16T07:24:29.669Z,24.13
2022-08-16T07:26:58.123Z,20.83
2022-08-16T07:29:25.084Z,22.35
2022-08-16T07:31:53.947Z,22.45
2022-08-16T07:34:20.659Z,23.67
2022-08-16T07:37:06.777Z,23.20
2022-08-16T07:39:33.751Z,21.67
2022-08-16T07:42:00.827Z,20.95
2022-08-16T07:44:28.805Z,21.60
2022-08-16T07:47:15.406Z,28.23
2022-08-16T07:49:53.271Z,24.48
2022-08-16T07:52:24.580Z,26.63
2022-08-16T07:54:56.230Z,21.25
2022-08-16T07:57:24.145Z,22.08
2022-08-16T07:59:51.455Z,22.67
2022-08-16T08:02:19.695Z,22.27
2022-08-16T08:04:47.472Z,20.20
2022-08-16T08:07:16.254Z,21.63
2022-08-16T08:09:43.974Z,21.52
2022-08-16T08:12:32.429Z,22.80
2022-08-16T08:14:57.853Z,20.75
2022-08-16T08:17:24.581Z,22.17
2022-08-16T08:20:12.930Z,20.30
2022-08-16T08:22:48.974Z,21.92
2022-08-16T08:25:16.353Z,21.42
2022-08-16T08:27:44.110Z,21.88
2022-08-16T08:30:51.657Z,21.67
2022-08-16T08:33:00.738Z,23.63
2022-08-16T08:35:28.564Z,21.40
2022-08-16T08:37:56.500Z,21.58
2022-08-16T08:40:26.787Z,20.33
2022-08-16T08:43:11.675Z,20.13
2022-08-16T08:45:48.212Z,23.48
2022-08-16T08:48:34.767Z,20.33
2022-08-16T08:51:09.024Z,21.85
2022-08-16T08:53:37.025Z,21.27
2022-08-16T08:56:23.060Z,23.77
2022-08-16T08:58:54.313Z,21.40
2022-08-16T09:01:31.887Z,19.70
2022-08-16T09:04:06.238Z,16.75
2022-08-16T09:06:37.127Z,20.50
2022-08-16T09:09:16.556Z,19.37
2022-08-16T09:11:49.571Z,20.77
2022-08-16T09:14:23.892Z,21.92
2022-08-16T09:17:00.911Z,21.33
2022-08-16T09:19:37.123Z,21.38
2022-08-16T09:22:07.918Z,21.20
2022-08-16T09:24:52.736Z,18.85
2022-08-16T09:27:21.783Z,21.77
2022-08-16T09:30:00.437Z,18.70
2022-08-16T09:32:30.253Z,22.38
2022-08-16T09:34:58.850Z,19.97
2022-08-16T09:37:29.621Z,26.60
2022-08-16T09:40:00.758Z,24.05
2022-08-16T09:42:30.888Z,19.23
2022-08-16T09:45:18.543Z,23.27
2022-08-16T09:47:56.161Z,20.53
2022-08-16T09:50:26.973Z,19.48
2022-08-16T09:53:06.891Z,25.17
2022-08-16T09:55:33.914Z,18.27
2022-08-16T09:58:12.305Z,16.85
2022-08-16T10:00:57.900Z,17.70
2022-08-16T10:03:30.324Z,18.58
2022-08-16T10:05:57.779Z,18.50
2022-08-16T10:08:26.345Z,19.02
2022-08-16T10:11:12.136Z,21.48
2022-08-16T10:13:39.610Z,19.27
2022-08-16T10:18:56.271Z,15.80
2022-08-16T10:21:24.063Z,16.92
2022-08-16T10:23:53.467Z,14.13
2022-08-16T10:27:17.691Z,18.00
2022-08-16T10:29:08.690Z,15.07
2022-08-16T10:31:45.364Z,15.05
2022-08-16T10:34:31.225Z,17.83
2022-08-16T10:37:02.555Z,15.60
2022-08-16T10:39:40.395Z,14.83
2022-08-16T10:42:07.958Z,15.45
2022-08-16T10:44:35.008Z,12.27
2022-08-16T10:47:02.352Z,17.73
2022-08-16T10:49:29.204Z,13.98
2022-08-16T10:52:03.239Z,16.07
2022-08-16T10:54:58.950Z,17.02
2022-08-16T10:57:32.822Z,15.00
2022-08-16T11:00:01.234Z,17.60
2022-08-16T11:03:37.431Z,15.98
2022-08-16T11:05:16.573Z,19.03
2022-08-16T11:07:52.091Z,17.60
2022-08-16T11:19:05.463Z,17.63
2022-08-16T11:21:34.008Z,15.82
2022-08-16T11:24:01.851Z,16.25
2022-08-16T11:26:29.824Z,12.38
2022-08-16T11:29:13.995Z,13.20
2022-08-16T11:31:45.585Z,17.63
2022-08-16T11:34:21.239Z,16.98
2022-08-16T11:36:59.273Z,13.40
2022-08-16T11:39:29.429Z,16.42
2022-08-16T11:41:57.243Z,13.20
2022-08-16T11:44:40.707Z,12.87
2022-08-16T11:47:11.790Z,15.32
2022-08-16T11:49:38.334Z,12.95
2022-08-16T11:52:05.211Z,11.57
2022-08-16T11:54:36.321Z,11.63
2022-08-16T11:57:04.403Z,14.57
2022-08-16T11:59:40.038Z,9.95
2022-08-16T12:02:31.869Z,10.80
2022-08-16T12:04:54.593Z,14.55
2022-08-16T12:07:23.697Z,10.88
2022-08-16T12:09:53.001Z,17.83
2022-08-16T12:12:20.480Z,12.18
2022-08-16T12:14:52.244Z,11.95
2022-08-16T12:17:26.709Z,12.70
2022-08-16T12:19:53.747Z,11.52
2022-08-16T12:22:20.373Z,12.63
2022-08-16T12:24:52.490Z,13.00
2022-08-16T12:27:22.981Z,15.63
2022-08-16T12:29:51.798Z,14.60
2022-08-16T12:32:36.163Z,15.45
2022-08-16T12:35:09.527Z,14.30
2022-08-16T12:37:36.354Z,11.60
2022-08-16T12:40:04.940Z,14.02
2022-08-16T12:42:35.794Z,11.23
2022-08-16T12:45:08.712Z,14.38
2022-08-16T12:48:10.059Z,13.97
2022-08-16T12:50:40.813Z,12.55
2022-08-16T12:53:08.083Z,14.95
2022-08-16T12:55:41.840Z,14.75
2022-08-16T12:58:13.890Z,13.93
2022-08-16T13:00:56.256Z,13.00
2022-08-16T13:03:23.307Z,12.48
2022-08-16T13:05:53.620Z,13.00
2022-08-16T13:08:22.928Z,12.07
2022-08-16T13:10:58.215Z,11.10
2022-08-16T13:13:26.738Z,13.20
2022-08-16T13:16:00.878Z,10.98
2022-08-16T13:18:34.454Z,12.07
2022-08-16T13:21:05.723Z,11.20
2022-08-16T13:23:34.064Z,12.38
2022-08-16T13:26:02.926Z,14.50
2022-08-16T13:28:29.475Z,13.55
2022-08-16T13:30:58.020Z,11.30
2022-08-16T13:33:30.596Z,12.32
2022-08-16T13:36:00.957Z,11.98
2022-08-16T13:38:32.642Z,9.70
2022-08-16T13:41:08.307Z,11.45
2022-08-16T13:43:38.039Z,12.00
2022-08-16T13:46:05.522Z,11.77
2022-08-16T13:48:42.713Z,11.63
2022-08-16T13:51:18.004Z,10.10
2022-08-16T13:53:59.151Z,11.73
2022-08-16T13:56:31.754Z,10.52
2022-08-16T13:59:19.341Z,12.98
2022-08-16T14:01:54.529Z,9.55
2022-08-16T14:04:26.454Z,9.47
2022-08-16T14:06:53.285Z,8.68
2022-08-16T14:09:21.537Z,9.05
2022-08-16T14:11:49.441Z,8.82
2022-08-16T14:14:19.998Z,8.20
2022-08-16T14:16:55.194Z,8.17
2022-08-16T14:19:22.450Z,9.20
2022-08-16T14:21:56.356Z,9.55
2022-08-16T14:24:30.363Z,7.93
2022-08-16T14:26:57.775Z,7.75
2022-08-16T14:29:24.350Z,7.67
2022-08-16T14:32:05.227Z,10.80
2022-08-16T14:34:31.798Z,7.00
2022-08-16T14:36:59.580Z,8.63
2022-08-16T14:39:26.710Z,11.00
2022-08-16T14:41:55.858Z,10.03
2022-08-16T14:44:23.575Z,8.68
2022-08-16T14:46:50.095Z,7.75
2022-08-16T14:49:19.371Z,8.95
2022-08-16T14:51:46.369Z,7.93
2022-08-16T14:54:15.080Z,9.17
2022-08-16T14:56:46.923Z,9.27
2022-08-16T14:59:21.962Z,9.40
2022-08-16T15:01:59.211Z,8.85
2022-08-16T15:04:37.864Z,8.57
2022-08-16T15:07:11.185Z,7.23
2022-08-16T15:09:44.114Z,7.75
2022-08-16T15:12:32.721Z,8.52
2022-08-16T15:15:01.351Z,9.65
2022-08-16T15:17:34.048Z,19.58
2022-08-16T15:20:08.495Z,17.40
2022-08-16T15:22:43.654Z,14.77
2022-08-16T15:25:17.997Z,14.65
2022-08-16T15:27:45.988Z,19.60
2022-08-16T15:30:57.447Z,16.30
2022-08-16T15:33:17.494Z,19.47
2022-08-16T15:35:46.209Z,20.02
2022-08-16T15:38:57.529Z,22.27
2022-08-16T15:41:01.209Z,20.58
2022-08-16T15:43:39.248Z,24.17
2022-08-16T15:46:35.311Z,20.27
2022-08-16T15:49:09.607Z,21.35
2022-08-16T15:51:37.224Z,20.85
2022-08-16T15:54:21.249Z,25.88
2022-08-16T15:56:55.208Z,22.05
2022-08-16T15:59:27.193Z,24.73
2022-08-16T16:01:55.812Z,22.95
2022-08-16T16:04:25.742Z,20.90
2022-08-16T16:06:55.130Z,22.52
2022-08-16T16:09:34.518Z,26.25
2022-08-16T16:12:34.184Z,20.70
2022-08-16T16:14:53.515Z,23.02
2022-08-16T16:17:20.067Z,23.70
2022-08-16T16:19:49.696Z,22.75
2022-08-16T16:22:21.471Z,27.58
2022-08-16T16:24:49.226Z,26.37
2022-08-16T16:27:16.704Z,23.83
2022-08-16T16:29:46.278Z,24.92
2022-08-16T16:32:17.674Z,19.80
2022-08-16T16:34:58.938Z,20.30
2022-08-16T16:37:26.693Z,23.03
2022-08-16T16:39:54.662Z,24.65
2022-08-16T16:42:29.599Z,21.60
2022-08-16T16:45:01.344Z,23.92
2022-08-16T16:47:30.793Z,23.92
2022-08-16T16:50:09.287Z,22.33
2022-08-16T16:52:44.113Z,21.02
2022-08-16T16:55:17.509Z,20.45
2022-08-16T16:58:04.898Z,18.85
2022-08-16T17:00:44.539Z,17.35
2022-08-16T17:03:18.580Z,19.27
2022-08-16T17:06:00.306Z,17.70
2022-08-16T17:08:30.997Z,19.58
2022-08-16T17:10:58.135Z,17.40
2022-08-16T17:13:26.684Z,14.65
2022-08-16T17:15:54.692Z,14.80
2022-08-16T17:19:14.612Z,14.82
2022-08-16T17:21:09.812Z,12.18
2022-08-16T17:23:58.276Z,13.50
2022-08-16T17:26:30.035Z,12.75
2022-08-16T17:29:01.928Z,12.57
2022-08-16T17:31:38.487Z,13.75
2022-08-16T17:34:28.795Z,14.88
2022-08-16T17:36:58.711Z,12.75
2022-08-16T17:39:29.671Z,12.07
2022-08-16T17:42:00.971Z,12.37
2022-08-16T17:44:27.734Z,12.30
2022-08-16T17:46:54.414Z,13.05
2022-08-16T17:49:22.196Z,15.50
2022-08-16T17:51:49.036Z,19.45
2022-08-16T17:54:18.346Z,18.93
2022-08-16T17:56:47.966Z,19.77
2022-08-16T17:59:24.223Z,17.27
2022-08-16T18:01:50.882Z,16.83
2022-08-16T18:04:48.800Z,16.70
2022-08-16T18:07:05.344Z,16.47
2022-08-16T18:09:31.912Z,17.85
2022-08-16T18:11:58.682Z,16.98
2022-08-16T18:14:52.096Z,18.65
2022-08-16T18:17:12.957Z,17.08
2022-08-16T18:19:39.614Z,21.43
2022-08-16T18:22:21.211Z,18.42
2022-08-16T18:25:08.569Z,19.40
2022-08-16T18:27:36.511Z,30.27
2022-08-16T18:30:03.758Z,19.15
2022-08-16T18:32:30.349Z,17.50
2022-08-16T18:34:57.021Z,20.95
2022-08-16T18:37:24.499Z,18.27
2022-08-16T18:39:51.178Z,22.15
2022-08-16T18:42:17.771Z,21.08
2022-08-16T18:44:44.730Z,20.33
2022-08-16T18:47:11.361Z,18.75
2022-08-16T18:49:38.313Z,21.85
2022-08-16T18:52:05.555Z,18.67
2022-08-16T18:54:33.225Z,18.50
2022-08-16T18:57:01.506Z,20.20
2022-08-16T18:59:31.244Z,18.80
2022-08-16T19:02:04.472Z,20.42
2022-08-16T19:04:56.108Z,20.23
2022-08-16T19:07:31.245Z,19.10
2022-08-16T19:09:59.404Z,20.57
2022-08-16T19:12:38.384Z,22.02
2022-08-16T19:15:13.420Z,23.70
2022-08-16T19:17:41.368Z,22.35
2022-08-16T19:20:10.747Z,23.50
2022-08-16T19:23:01.475Z,24.83
2022-08-16T19:25:36.926Z,24.80
2022-08-16T19:28:33.399Z,26.30
2022-08-16T19:31:03.687Z,23.77
2022-08-16T19:33:30.569Z,22.57
2022-08-16T19:35:57.121Z,23.30
2022-08-16T19:38:23.721Z,23.58
2022-08-16T19:40:50.621Z,27.27
2022-08-16T19:43:17.485Z,28.33
2022-08-16T19:45:46.108Z,27.57
2022-08-16T19:48:13.091Z,29.85
2022-08-16T19:50:41.141Z,32.40
2022-08-16T19:53:13.122Z,31.85
2022-08-16T19:55:47.373Z,37.03
2022-08-16T19:58:15.386Z,28.90
2022-08-16T20:00:43.583Z,29.90
2022-08-16T20:03:13.233Z,33.78
2022-08-16T20:05:40.992Z,36.20
2022-08-16T20:08:08.120Z,31.88
2022-08-16T20:10:35.282Z,32.20
2022-08-16T20:13:02.971Z,32.05
2022-08-16T20:15:31.760Z,32.72
2022-08-16T20:18:00.912Z,36.50
2022-08-16T20:20:28.779Z,30.67
2022-08-16T20:22:57.607Z,31.27
2022-08-16T20:25:30.654Z,34.35
2022-08-16T20:28:00.378Z,30.92
2022-08-16T20:30:27.936Z,33.35
2022-08-16T20:32:54.792Z,29.95
2022-08-16T20:35:25.100Z,36.23
2022-08-16T20:37:51.913Z,33.97
2022-08-16T20:40:33.905Z,36.72
2022-08-16T20:43:08.234Z,39.47
2022-08-16T20:45:36.336Z,32.75
2022-08-16T20:48:03.829Z,36.20
2022-08-16T20:50:30.440Z,35.20
2022-08-16T20:52:57.181Z,35.38
2022-08-16T20:55:25.624Z,32.35
2022-08-16T20:57:55.937Z,32.97
2022-08-16T21:00:22.774Z,36.67
2022-08-16T21:02:49.517Z,35.33
2022-08-16T21:05:24.629Z,32.78
2022-08-16T21:07:54.713Z,33.35
2022-08-16T21:10:23.038Z,32.67
2022-08-16T21:12:58.836Z,32.60
2022-08-16T21:15:27.717Z,33.60
2022-08-16T21:17:54.533Z,33.63
2022-08-16T21:20:23.099Z,31.77
2022-08-16T21:23:05.165Z,36.25
2022-08-16T21:25:33.135Z,35.33
2022-08-16T21:28:41.183Z,34.25
2022-08-16T21:30:48.805Z,35.20
2022-08-16T21:33:18.520Z,36.38
2022-08-16T21:35:46.943Z,33.72
2022-08-16T21:38:29.221Z,31.87
2022-08-16T21:40:57.864Z,36.75
2022-08-16T21:43:25.609Z,37.92
2022-08-16T21:45:54.155Z,33.47
2022-08-16T21:48:35.278Z,32.85
2022-08-16T21:51:08.429Z,30.87
2022-08-16T21:53:35.797Z,31.30
2022-08-16T21:56:03.459Z,33.10
2022-08-16T21:58:31.249Z,32.00
2022-08-16T22:00:58.390Z,33.67
2022-08-16T22:03:24.967Z,34.57
2022-08-16T22:06:11.569Z,35.58
2022-08-16T22:08:49.345Z,32.10
2022-08-16T22:11:22.094Z,34.55
2022-08-16T22:13:57.634Z,34.33
2022-08-16T22:16:31.512Z,38.43
2022-08-16T22:18:58.610Z,38.00
2022-08-16T22:21:25.384Z,39.45
2022-08-16T22:23:57.356Z,40.38
2022-08-16T22:26:31.807Z,40.42
2022-08-16T22:29:05.269Z,40.53
2022-08-16T22:31:32.994Z,44.20
2022-08-16T22:34:01.809Z,45.80
2022-08-16T22:36:30.307Z,44.05
2022-08-16T22:38:58.733Z,42.95
2022-08-16T22:41:27.881Z,42.53
2022-08-16T22:43:54.757Z,42.67
2022-08-16T22:46:21.411Z,46.40
2022-08-16T22:48:50.420Z,47.95
2022-08-16T22:51:18.880Z,49.40
2022-08-16T22:53:45.791Z,45.97
2022-08-16T22:56:12.385Z,43.13
2022-08-16T22:58:39.472Z,49.30
2022-08-16T23:01:07.871Z,42.30
2022-08-16T23:03:35.112Z,42.20
2022-08-16T23:06:01.718Z,41.90
2022-08-16T23:08:35.005Z,45.25
2022-08-16T23:11:11.390Z,42.75
2022-08-16T23:13:38.363Z,43.70
2022-08-16T23:16:32.769Z,41.33
2022-08-16T23:19:05.365Z,43.57
2022-08-16T23:21:32.996Z,43.13
2022-08-16T23:23:59.994Z,48.63
2022-08-16T23:26:45.365Z,47.47
2022-08-16T23:29:22.033Z,50.30
2022-08-16T23:31:55.232Z,48.70
2022-08-16T23:34:22.204Z,52.15
2022-08-16T23:36:48.750Z,51.75
2022-08-16T23:39:15.278Z,51.03
2022-08-16T23:41:42.002Z,54.55
2022-08-16T23:44:56.368Z,59.33
2022-08-16T23:46:55.716Z,59.67
2022-08-16T23:50:01.132Z,55.72
2022-08-16T23:52:09.926Z,58.05
2022-08-16T23:54:36.787Z,60.00
2022-08-16T23:57:04.295Z,64.50
2022-08-16T23:59:34.467Z,66.53
